Time;durP1;ratioP1;P1;durP2;ratioP2;P2;SDS_P1;SDS_P2;PMS_P1;PMS_P2;Temp;Humidity;BMP_temperature;BMP_pressure;BME280_temperature;BME280_humidity;BME280_pressure;Samples;Min_cycle;Max_cycle;Signal;HPM_P1;HPM_P2
2023/10/10 00:02:28;;;;;;;25.73;22.90;;;16.70;99.90;;;;;;5087146;28;20508;-64
2023/10/10 00:04:54;;;;;;;28.17;23.50;;;16.70;99.90;;;;;;5094302;28;20437;-64
2023/10/10 00:07:59;;;;;;;27.60;24.70;;;16.70;99.90;;;;;;5091307;28;20436;-63
2023/10/10 00:10:27;;;;;;;26.23;23.53;;;16.60;99.90;;;;;;5085389;28;20430;-63
2023/10/10 00:13:00;;;;;;;30.67;25.80;;;16.60;99.90;;;;;;5051237;28;20928;-63
2023/10/10 00:15:37;;;;;;;28.73;25.17;;;16.60;99.90;;;;;;5085185;28;20431;-63
2023/10/10 00:18:11;;;;;;;27.17;24.37;;;16.60;99.90;;;;;;5085019;28;20520;-63
2023/10/10 00:21:23;;;;;;;33.17;24.47;;;16.60;99.90;;;;;;5084893;28;20468;-63
2023/10/10 00:23:55;;;;;;;30.73;24.77;;;16.60;99.90;;;;;;4993021;28;20534;-63
2023/10/10 00:26:48;;;;;;;31.20;25.10;;;16.60;99.90;;;;;;5090668;28;20421;-64
2023/10/10 00:29:14;;;;;;;26.77;23.90;;;16.60;99.90;;;;;;5064766;28;20948;-64
2023/10/10 00:31:55;;;;;;;28.00;24.30;;;16.60;99.90;;;;;;5093789;28;20422;-63
2023/10/10 00:34:30;;;;;;;29.30;26.13;;;16.60;99.90;;;;;;5090430;28;20649;-63
2023/10/10 00:37:01;;;;;;;30.47;25.57;;;16.60;99.90;;;;;;5083695;28;20478;-64
2023/10/10 00:39:51;;;;;;;28.90;24.80;;;16.60;99.90;;;;;;5084474;28;20529;-63
2023/10/10 00:42:36;;;;;;;28.13;23.87;;;16.60;99.90;;;;;;5080280;28;20549;-63
2023/10/10 00:45:13;;;;;;;32.13;26.30;;;16.60;99.90;;;;;;5083578;28;20497;-63
2023/10/10 00:48:24;;;;;;;30.57;25.87;;;16.60;99.90;;;;;;5090348;28;21071;-64
2023/10/10 00:50:53;;;;;;;32.07;27.13;;;16.60;99.90;;;;;;5103698;28;20919;-63
2023/10/10 00:53:22;;;;;;;32.07;27.53;;;16.60;99.90;;;;;;5103942;28;21007;-63
2023/10/10 00:55:57;;;;;;;32.83;25.00;;;16.60;99.90;;;;;;5099250;28;20425;-62
2023/10/10 00:58:36;;;;;;;31.27;24.37;;;16.60;99.90;;;;;;5096095;28;21026;-63
2023/10/10 01:01:14;;;;;;;31.00;26.63;;;16.60;99.90;;;;;;5099933;28;20952;-63
2023/10/10 01:03:58;;;;;;;29.23;25.80;;;16.60;99.90;;;;;;5096652;28;20422;-63
2023/10/10 01:06:31;;;;;;;29.30;26.20;;;16.60;99.90;;;;;;5101463;28;21139;-63
2023/10/10 01:12:53;;;;;;;28.73;25.47;;;16.50;99.90;;;;;;4980954;28;20443;-64
2023/10/10 01:15:50;;;;;;;31.00;26.10;;;16.60;99.90;;;;;;4976672;28;20439;-64
2023/10/10 01:22:22;;;;;;;33.13;26.03;;;16.50;99.90;;;;;;4956104;28;20440;-63
2023/10/10 01:24:52;;;;;;;28.07;24.77;;;16.60;99.90;;;;;;4956012;28;20500;-64
2023/10/10 01:27:26;;;;;;;31.97;26.07;;;16.60;99.90;;;;;;4959538;28;20448;-64
2023/10/10 01:30:17;;;;;;;31.27;25.70;;;16.60;99.90;;;;;;5027796;28;20528;-64
2023/10/10 01:36:29;;;;;;;31.60;26.10;;;16.60;99.90;;;;;;5055597;28;20509;-64
2023/10/10 01:39:08;;;;;;;30.10;26.10;;;16.60;99.90;;;;;;5036080;28;20485;-64
2023/10/10 01:41:55;;;;;;;31.07;26.23;;;16.60;99.90;;;;;;5063035;28;20435;-64
2023/10/10 01:44:27;;;;;;;36.57;27.67;;;16.60;99.90;;;;;;5075696;28;20533;-64
2023/10/10 01:47:03;;;;;;;29.47;25.30;;;16.60;99.90;;;;;;5098072;28;20505;-63
2023/10/10 01:49:29;;;;;;;28.70;25.07;;;16.60;99.90;;;;;;5098407;28;20461;-64
2023/10/10 01:55:41;;;;;;;29.43;26.07;;;16.50;99.90;;;;;;5009267;28;20460;-64
2023/10/10 01:58:20;;;;;;;34.00;26.70;;;16.60;99.90;;;;;;5102080;28;20584;-63
2023/10/10 02:00:52;;;;;;;33.10;25.30;;;16.60;99.90;;;;;;5100720;28;20809;-64
2023/10/10 02:03:21;;;;;;;31.30;27.10;;;16.60;99.90;;;;;;5100958;28;20436;-63
2023/10/10 02:05:55;;;;;;;30.97;26.90;;;16.60;99.90;;;;;;5103134;28;21010;-63
2023/10/10 02:08:44;;;;;;;33.70;25.20;;;16.60;99.90;;;;;;5099961;28;20422;-64
2023/10/10 02:12:12;;;;;;;35.53;26.20;;;16.60;99.90;;;;;;5085011;28;20436;-64
2023/10/10 02:14:38;;;;;;;32.83;26.60;;;16.70;99.90;;;;;;5101455;28;20496;-64
2023/10/10 02:17:46;;;;;;;33.20;26.17;;;16.70;99.90;;;;;;5098689;28;20457;-64
2023/10/10 02:25:54;;;;;;;34.77;28.30;;;16.60;99.90;;;;;;5102649;28;20472;-64
2023/10/10 02:28:42;;;;;;;31.37;27.97;;;16.60;99.90;;;;;;5103027;28;20928;-64
2023/10/10 02:35:00;;;;;;;31.10;27.30;;;16.60;99.90;;;;;;5015131;28;20496;-63
2023/10/10 02:40:19;;;;;;;33.50;26.50;;;16.60;99.90;;;;;;5102012;28;20425;-63
2023/10/10 02:45:30;;;;;;;33.17;28.27;;;16.60;99.90;;;;;;5096858;28;20430;-63
2023/10/10 02:47:58;;;;;;;37.70;29.60;;;16.60;99.90;;;;;;5096775;28;20776;-63
2023/10/10 02:50:39;;;;;;;35.20;26.87;;;16.60;99.90;;;;;;5102464;28;20184;-64
2023/10/10 02:53:21;;;;;;;32.50;27.67;;;16.60;99.90;;;;;;5098999;28;21363;-64
2023/10/10 02:55:52;;;;;;;32.20;27.43;;;16.60;99.90;;;;;;5098381;28;20916;-63
2023/10/10 02:58:21;;;;;;;30.70;24.57;;;16.60;99.90;;;;;;5102027;28;20507;-63
2023/10/10 03:01:04;;;;;;;27.83;24.60;;;16.60;99.90;;;;;;5098224;28;20421;-64
2023/10/10 03:03:39;;;;;;;31.60;26.27;;;16.70;99.90;;;;;;5092881;28;21094;-64
2023/10/10 03:06:06;;;;;;;32.53;26.37;;;16.60;99.90;;;;;;5098792;28;20437;-63
2023/10/10 03:08:51;;;;;;;39.97;28.50;;;16.60;99.90;;;;;;5100390;28;20432;-63
2023/10/10 03:11:35;;;;;;;31.27;27.07;;;16.60;99.90;;;;;;5096850;28;20440;-64
2023/10/10 03:14:07;;;;;;;33.40;27.30;;;16.60;99.90;;;;;;5102309;28;20512;-64
2023/10/10 03:16:44;;;;;;;35.20;27.70;;;16.60;99.90;;;;;;5102750;28;20427;-64
2023/10/10 03:19:50;;;;;;;34.47;26.30;;;16.60;99.90;;;;;;5100844;28;20801;-64
2023/10/10 03:22:27;;;;;;;33.73;26.23;;;16.60;99.90;;;;;;5080403;28;21002;-64
2023/10/10 03:25:36;;;;;;;40.13;29.33;;;16.50;99.90;;;;;;5090182;28;20437;-64
2023/10/10 03:28:18;;;;;;;37.13;27.63;;;16.50;99.90;;;;;;5098253;28;20489;-64
2023/10/10 03:31:33;;;;;;;;;;;;;;;;;;;;;
2023/10/10 03:34:18;;;;;;;;;;;;;;;;;;;;;
2023/10/10 03:39:53;;;;;;;41.70;30.87;;;16.50;99.90;;;;;;5095737;28;20419;-63
2023/10/10 05:25:32;;;;;;;49.73;32.90;;;16.00;99.90;;;;;;5100486;28;20426;-64
2023/10/10 05:28:40;;;;;;;49.93;30.73;;;15.90;99.90;;;;;;5098532;28;20460;-64
2023/10/10 05:31:27;;;;;;;46.30;29.17;;;15.90;99.90;;;;;;5091887;28;20449;-64
2023/10/10 05:35:11;;;;;;;53.90;33.90;;;15.90;99.90;;;;;;5067653;28;20788;-64
2023/10/10 05:37:40;;;;;;;52.30;33.27;;;15.80;99.90;;;;;;4999782;28;20632;-63
2023/10/10 05:40:47;;;;;;;53.63;34.17;;;15.80;99.90;;;;;;5098400;27;21272;-64
2023/10/10 05:43:26;;;;;;;42.00;31.03;;;15.80;99.90;;;;;;5040105;28;20436;-64
2023/10/10 05:45:51;;;;;;;52.30;32.27;;;15.80;99.90;;;;;;5036506;28;20436;-63
2023/10/10 05:48:17;;;;;;;48.83;32.47;;;15.80;99.90;;;;;;5040619;28;20467;-64
2023/10/10 05:50:48;;;;;;;47.20;32.17;;;15.80;99.90;;;;;;5039529;28;20735;-63
2023/10/10 05:53:16;;;;;;;49.13;30.80;;;15.80;99.90;;;;;;5040288;28;20181;-64
2023/10/10 05:58:54;;;;;;;50.87;34.80;;;15.80;99.90;;;;;;5035872;28;20464;-64
2023/10/10 06:01:35;;;;;;;52.33;33.37;;;15.80;99.90;;;;;;5040319;28;20482;-64
2023/10/10 06:04:22;;;;;;;52.40;34.97;;;15.80;99.90;;;;;;5040180;28;20467;-64
2023/10/10 06:06:59;;;;;;;50.30;35.10;;;15.80;99.90;;;;;;5048129;28;20500;-64
2023/10/10 06:12:40;;;;;;;48.10;34.10;;;15.80;99.90;;;;;;5094254;28;20786;-64
2023/10/10 06:15:28;;;;;;;61.17;38.87;;;15.80;99.90;;;;;;5095209;28;20821;-64
2023/10/10 06:18:12;;;;;;;58.70;39.73;;;15.90;99.90;;;;;;5100094;28;20469;-64
2023/10/10 06:20:42;;;;;;;55.57;40.70;;;15.90;99.90;;;;;;5099500;28;20414;-64
2023/10/10 06:23:22;;;;;;;54.90;39.37;;;15.90;99.90;;;;;;5084035;28;20418;-64
2023/10/10 06:26:12;;;;;;;59.47;39.73;;;16.00;99.90;;;;;;5098031;28;20414;-63
2023/10/10 06:29:24;;;;;;;55.03;41.53;;;16.00;99.90;;;;;;4994710;28;20496;-64
2023/10/10 06:31:51;;;;;;;58.17;42.40;;;16.10;99.90;;;;;;4959596;28;20903;-64
2023/10/10 06:34:34;;;;;;;54.67;40.00;;;16.10;99.90;;;;;;4998414;28;20454;-64
2023/10/10 06:37:10;;;;;;;56.27;42.00;;;16.10;99.90;;;;;;4999822;28;20462;-65
2023/10/10 06:39:54;;;;;;;64.80;44.23;;;16.20;99.90;;;;;;5038874;28;20514;-64
2023/10/10 06:42:46;;;;;;;53.00;38.50;;;16.20;99.90;;;;;;5092020;28;20457;-64
2023/10/10 06:45:21;;;;;;;53.83;41.17;;;16.20;99.90;;;;;;5101803;28;20433;-64
2023/10/10 06:48:02;;;;;;;56.57;41.37;;;16.20;99.90;;;;;;5090826;28;20437;-64
2023/10/10 06:50:39;;;;;;;54.97;40.10;;;16.20;99.90;;;;;;5099113;28;20464;-64
2023/10/10 07:00:27;;;;;;;53.60;39.07;;;16.30;99.90;;;;;;4999992;28;20430;-64
2023/10/10 07:02:59;;;;;;;55.67;38.20;;;16.30;99.90;;;;;;4940753;29;20451;-64
2023/10/10 07:05:43;;;;;;;52.30;38.07;;;16.30;99.90;;;;;;4988812;28;20832;-64
2023/10/10 07:11:39;;;;;;;51.47;37.57;;;16.40;99.90;;;;;;4998132;28;20434;-64
2023/10/10 07:14:40;;;;;;;47.90;36.77;;;16.40;99.90;;;;;;4999584;28;20442;-64
2023/10/10 07:17:15;;;;;;;48.40;35.73;;;16.50;99.90;;;;;;4987728;28;20480;-64
2023/10/10 07:22:45;;;;;;;47.20;34.17;;;16.60;99.90;;;;;;4999211;28;20430;-64
2023/10/10 07:25:43;;;;;;;46.60;33.97;;;16.70;99.90;;;;;;4999653;28;20446;-64
2023/10/10 07:28:18;;;;;;;43.67;32.40;;;16.70;99.90;;;;;;4999268;28;20597;-64
2023/10/10 07:30:56;;;;;;;41.20;34.23;;;16.80;99.90;;;;;;4999180;28;20525;-64
2023/10/10 07:33:29;;;;;;;43.10;33.53;;;16.80;99.90;;;;;;5047212;28;20466;-64
2023/10/10 07:36:38;;;;;;;43.23;33.10;;;16.90;99.90;;;;;;5092971;28;20792;-65
2023/10/10 07:42:09;;;;;;;42.57;31.50;;;17.20;99.90;;;;;;5099181;28;20422;-64
2023/10/10 07:45:13;;;;;;;36.80;29.20;;;17.40;99.90;;;;;;5089324;28;20433;-64
2023/10/10 07:48:38;;;;;;;34.00;27.57;;;17.60;99.90;;;;;;5091616;28;21222;-64
2023/10/10 07:50:36;;;;;;;40.50;27.60;;;17.80;99.90;;;;;;5093493;28;20440;-64
2023/10/10 07:53:28;;;;;;;31.20;24.63;;;18.00;99.90;;;;;;5062472;28;20453;-64
2023/10/10 07:56:22;;;;;;;28.60;23.57;;;18.20;99.90;;;;;;5089555;28;20441;-64
2023/10/10 07:59:05;;;;;;;27.60;22.23;;;18.30;99.90;;;;;;5097315;28;20506;-64
2023/10/10 08:01:38;;;;;;;29.40;21.43;;;18.60;99.90;;;;;;5096995;28;20477;-64
2023/10/10 08:04:07;;;;;;;25.87;22.20;;;18.80;99.90;;;;;;5089822;28;20836;-64
2023/10/10 08:06:38;;;;;;;25.03;20.43;;;19.00;99.90;;;;;;5099913;28;21097;-64
2023/10/10 08:09:19;;;;;;;26.90;19.70;;;19.10;99.90;;;;;;5102913;28;20430;-64
2023/10/10 08:12:31;;;;;;;26.57;21.30;;;19.20;99.90;;;;;;5089089;28;20491;-64
2023/10/10 08:21:14;;;;;;;29.40;19.27;;;19.30;99.90;;;;;;5090219;28;20514;-64
2023/10/10 08:23:59;;;;;;;22.30;18.30;;;19.40;99.90;;;;;;5101619;28;20450;-64
2023/10/10 08:26:39;;;;;;;25.63;18.70;;;19.40;99.90;;;;;;5089274;28;20835;-64
2023/10/10 08:29:09;;;;;;;20.53;16.73;;;19.50;99.90;;;;;;5105334;28;20452;-64
2023/10/10 08:32:30;;;;;;;19.93;15.37;;;19.50;99.90;;;;;;5104415;28;20491;-64
2023/10/10 08:35:38;;;;;;;21.13;15.33;;;19.50;99.90;;;;;;5090066;28;20431;-64
2023/10/10 08:41:08;;;;;;;16.97;13.73;;;19.60;99.90;;;;;;5068075;28;20456;-65
2023/10/10 08:43:36;;;;;;;18.00;13.33;;;19.70;99.90;;;;;;5100545;28;20433;-64
2023/10/10 08:46:14;;;;;;;15.57;12.53;;;19.80;99.90;;;;;;5086720;28;20532;-64
2023/10/10 08:49:05;;;;;;;20.10;12.80;;;19.90;99.90;;;;;;5047533;28;20563;-65
2023/10/10 08:51:34;;;;;;;17.10;12.80;;;19.90;99.90;;;;;;5086951;28;20483;-63
2023/10/10 08:57:10;;;;;;;16.23;11.83;;;20.10;99.90;;;;;;5104445;28;20433;-64
2023/10/10 08:59:42;;;;;;;16.10;10.47;;;20.20;99.90;;;;;;5101076;28;20438;-63
2023/10/10 09:02:23;;;;;;;11.47;9.93;;;20.20;99.90;;;;;;5096211;28;20442;-64
2023/10/10 09:04:54;;;;;;;13.00;9.47;;;20.30;99.90;;;;;;5095967;28;20418;-64
2023/10/10 09:07:20;;;;;;;9.87;8.70;;;20.40;99.90;;;;;;5104276;28;20454;-64
2023/10/10 09:09:54;;;;;;;14.10;9.20;;;20.50;99.90;;;;;;5095425;28;20854;-64
2023/10/10 09:12:52;;;;;;;12.17;8.50;;;20.70;99.90;;;;;;5087022;28;20437;-64
2023/10/10 09:15:19;;;;;;;14.00;8.63;;;20.90;99.90;;;;;;5100613;28;20528;-64
2023/10/10 09:17:46;;;;;;;10.50;7.60;;;21.00;99.90;;;;;;5095274;28;20524;-64
2023/10/10 09:20:53;;;;;;;11.10;7.47;;;21.10;99.90;;;;;;5103537;28;20540;-65
2023/10/10 09:23:33;;;;;;;14.67;8.93;;;21.30;99.90;;;;;;5100695;28;20433;-64
2023/10/10 09:26:29;;;;;;;11.13;7.97;;;21.30;99.90;;;;;;5096242;28;20552;-64
2023/10/10 09:29:42;;;;;;;9.87;6.97;;;21.50;99.90;;;;;;5102411;28;20995;-64
2023/10/10 09:32:15;;;;;;;9.00;7.93;;;21.50;99.90;;;;;;5102381;28;20455;-64
2023/10/10 09:35:13;;;;;;;10.83;7.37;;;21.40;99.90;;;;;;5079467;28;20426;-64
2023/10/10 09:37:44;;;;;;;12.50;7.50;;;21.50;99.90;;;;;;5031192;28;21023;-64
2023/10/10 09:40:42;;;;;;;10.83;8.30;;;21.50;99.90;;;;;;5099278;27;20453;-64
2023/10/10 09:43:36;;;;;;;10.17;7.87;;;21.50;99.90;;;;;;5059370;28;20441;-64
2023/10/10 09:46:19;;;;;;;12.90;7.97;;;21.40;99.90;;;;;;5000791;28;20460;-63
2023/10/10 10:01:44;;;;;;;12.50;7.60;;;21.20;99.90;;;;;;5102740;28;20878;-64
2023/10/10 10:05:06;;;;;;;10.87;7.73;;;21.30;99.90;;;;;;5014945;28;20975;-64
2023/10/10 10:08:13;;;;;;;11.53;7.83;;;21.30;99.90;;;;;;4957799;28;20475;-64
2023/10/10 10:11:33;;;;;;;11.40;6.87;;;21.40;99.90;;;;;;5038853;28;20459;-64
2023/10/10 10:17:47;;;;;;;8.07;6.10;;;21.30;99.90;;;;;;5097962;28;20442;-63
2023/10/10 10:26:42;;;;;;;11.53;6.23;;;21.10;99.90;;;;;;5036354;28;20428;-63
2023/10/10 10:29:26;;;;;;;8.03;6.27;;;21.10;99.90;;;;;;5087649;28;20499;-64
2023/10/10 10:35:44;;;;;;;8.43;4.90;;;21.10;99.90;;;;;;5037075;28;20554;-63
2023/10/10 10:38:10;;;;;;;7.67;5.23;;;21.20;99.90;;;;;;5038048;28;20487;-63
2023/10/10 10:40:52;;;;;;;6.80;6.10;;;21.20;99.90;;;;;;5086080;28;20487;-63
2023/10/10 10:44:18;;;;;;;7.90;5.53;;;21.20;99.90;;;;;;5088490;28;20431;-63
2023/10/10 10:50:40;;;;;;;7.07;5.33;;;21.20;99.90;;;;;;5056602;28;20479;-64
2023/10/10 10:53:59;;;;;;;7.97;5.40;;;21.10;99.90;;;;;;5092016;28;20434;-64
2023/10/10 11:02:40;;;;;;;5.93;5.30;;;21.10;99.90;;;;;;5016157;28;20426;-63
2023/10/10 11:05:55;;;;;;;7.30;5.03;;;21.20;99.90;;;;;;5019436;28;20429;-63
2023/10/10 11:08:51;;;;;;;8.40;5.60;;;21.30;99.90;;;;;;5020144;28;20437;-63
2023/10/10 11:14:46;;;;;;;7.27;5.27;;;21.40;99.90;;;;;;5040793;28;20887;-63
2023/10/10 11:17:21;;;;;;;6.67;5.77;;;21.50;99.90;;;;;;5097288;28;21271;-63
2023/10/10 11:19:48;;;;;;;6.73;5.10;;;21.60;99.90;;;;;;5101224;28;20425;-63
2023/10/10 11:25:04;;;;;;;10.50;4.67;;;21.80;99.90;;;;;;5095837;28;20449;-63
2023/10/10 11:27:48;;;;;;;5.80;3.90;;;21.90;99.90;;;;;;5097891;28;20779;-64
2023/10/10 11:30:38;;;;;;;10.73;5.87;;;22.00;99.90;;;;;;5105425;28;21087;-64
2023/10/10 11:37:32;;;;;;;5.40;4.17;;;22.30;99.90;;;;;;5056626;28;20438;-63
2023/10/10 11:40:38;;;;;;;5.70;4.50;;;22.50;99.90;;;;;;5003372;28;20453;-63
2023/10/10 11:43:11;;;;;;;5.23;4.20;;;22.60;99.90;;;;;;5004088;28;20466;-63
2023/10/10 11:45:40;;;;;;;8.60;4.97;;;22.70;99.90;;;;;;5099328;28;20847;-63
2023/10/10 11:48:29;;;;;;;7.90;5.43;;;22.80;99.90;;;;;;5100914;28;20421;-63
2023/10/10 11:50:59;;;;;;;6.10;4.53;;;22.80;99.90;;;;;;5089805;28;20473;-63
2023/10/10 11:54:25;;;;;;;6.80;4.57;;;22.90;99.90;;;;;;5105591;28;20421;-64
2023/10/10 11:57:00;;;;;;;5.83;4.20;;;22.90;99.90;;;;;;5089930;28;20464;-63
2023/10/10 11:59:25;;;;;;;5.90;4.57;;;23.10;99.90;;;;;;5103964;28;20432;-63
2023/10/10 12:01:54;;;;;;;11.37;5.60;;;23.10;99.90;;;;;;5101330;28;20427;-63
2023/10/10 12:07:24;;;;;;;8.10;4.57;;;23.30;99.90;;;;;;5096384;28;20434;-63
2023/10/10 12:10:30;;;;;;;7.30;5.30;;;23.30;99.90;;;;;;5098175;28;20514;-63
2023/10/10 12:17:06;;;;;;;8.10;4.83;;;23.40;99.80;;;;;;5049590;28;20450;-63
2023/10/10 12:19:46;;;;;;;6.60;4.67;;;23.50;99.90;;;;;;5073822;28;20433;-63
2023/10/10 12:22:38;;;;;;;6.60;4.30;;;23.50;99.90;;;;;;5071113;28;20516;-63
2023/10/10 12:25:04;;;;;;;8.77;4.60;;;23.60;99.90;;;;;;5090210;28;20427;-63
2023/10/10 12:27:59;;;;;;;11.23;5.03;;;23.70;99.90;;;;;;5099564;28;20425;-63
2023/10/10 12:30:57;;;;;;;8.10;5.10;;;23.70;99.90;;;;;;5088656;28;21011;-63
2023/10/10 12:33:31;;;;;;;6.10;4.60;;;23.70;99.20;;;;;;5010307;28;20447;-63
2023/10/10 12:36:59;;;;;;;8.63;4.73;;;23.70;99.70;;;;;;5099663;28;20453;-63
2023/10/10 12:39:27;;;;;;;5.23;4.27;;;23.80;99.90;;;;;;5020551;28;20520;-64
2023/10/10 12:42:02;;;;;;;8.83;5.07;;;23.90;99.30;;;;;;5037019;28;20438;-63
2023/10/10 12:44:34;;;;;;;7.77;4.40;;;23.90;98.70;;;;;;5071213;28;20438;-63
2023/10/10 12:47:31;;;;;;;6.10;4.07;;;23.90;99.30;;;;;;5096417;28;20426;-63
2023/10/10 12:50:15;;;;;;;9.53;4.40;;;24.00;99.70;;;;;;5090147;28;20460;-63
2023/10/10 12:53:02;;;;;;;11.50;5.20;;;24.00;99.40;;;;;;5087006;28;20494;-63
2023/10/10 12:55:35;;;;;;;7.87;4.80;;;24.10;99.30;;;;;;5091325;28;20436;-63
2023/10/10 12:58:14;;;;;;;10.23;5.80;;;24.10;99.00;;;;;;5090494;28;20520;-64
2023/10/10 13:00:59;;;;;;;7.37;5.90;;;24.10;99.50;;;;;;5085818;28;20438;-63
2023/10/10 13:03:32;;;;;;;9.20;5.80;;;24.10;99.30;;;;;;5093165;28;20425;-64
2023/10/10 13:06:03;;;;;;;7.73;5.27;;;24.20;99.20;;;;;;5105321;28;20494;-63
2023/10/10 13:11:50;;;;;;;8.77;4.90;;;24.20;99.50;;;;;;5089745;28;20438;-63
2023/10/10 13:14:50;;;;;;;9.17;5.67;;;24.30;99.60;;;;;;5103380;28;20434;-63
2023/10/10 13:17:31;;;;;;;9.57;5.37;;;24.40;98.60;;;;;;5089413;28;20535;-63
2023/10/10 13:19:58;;;;;;;6.93;4.97;;;24.20;98.60;;;;;;5104773;28;20989;-64
2023/10/10 13:22:43;;;;;;;9.13;4.87;;;24.10;99.50;;;;;;5102136;28;20924;-64
2023/10/10 13:25:14;;;;;;;6.50;5.00;;;24.10;99.90;;;;;;5104472;28;20444;-63
2023/10/10 13:27:46;;;;;;;6.37;4.73;;;24.10;99.20;;;;;;5096875;28;20435;-63
2023/10/10 13:30:15;;;;;;;8.83;4.70;;;24.10;99.20;;;;;;5092583;28;21013;-64
2023/10/10 13:33:02;;;;;;;7.07;5.17;;;24.00;99.30;;;;;;5085137;28;20441;-63
2023/10/10 13:35:31;;;;;;;10.70;4.93;;;23.90;99.80;;;;;;5087058;28;20441;-63
2023/10/10 13:38:07;;;;;;;10.80;5.00;;;23.90;99.80;;;;;;5096505;28;20470;-64
2023/10/10 13:40:46;;;;;;;7.07;4.97;;;23.90;99.20;;;;;;5100319;28;21176;-64
2023/10/10 13:43:19;;;;;;;10.50;4.63;;;23.80;98.50;;;;;;5090230;28;20483;-63
2023/10/10 13:45:51;;;;;;;6.87;4.80;;;23.80;99.00;;;;;;5094937;28;20449;-63
2023/10/10 13:48:55;;;;;;;9.40;4.30;;;23.70;99.00;;;;;;5091840;28;20429;-63
2023/10/10 13:51:39;;;;;;;8.23;5.13;;;23.60;99.30;;;;;;4999652;28;20442;-63
2023/10/10 13:54:05;;;;;;;8.63;4.93;;;23.50;99.10;;;;;;5000649;28;20442;-63
2023/10/10 13:57:00;;;;;;;7.00;4.90;;;23.40;99.00;;;;;;5069710;28;20459;-64
2023/10/10 13:59:53;;;;;;;6.03;4.20;;;23.30;99.90;;;;;;5063340;28;20567;-63
2023/10/10 14:02:46;;;;;;;9.90;4.93;;;23.30;99.90;;;;;;5093006;28;20437;-63
2023/10/10 14:05:19;;;;;;;10.30;5.10;;;23.30;99.90;;;;;;5092856;28;20434;-63
2023/10/10 14:07:50;;;;;;;9.50;5.20;;;23.30;99.90;;;;;;5094951;28;20799;-63
2023/10/10 14:10:20;;;;;;;8.07;5.27;;;23.30;99.90;;;;;;5097068;28;20518;-63
2023/10/10 14:12:50;;;;;;;6.43;4.73;;;23.30;99.90;;;;;;5093722;28;20472;-63
2023/10/10 14:16:02;;;;;;;8.33;5.50;;;23.30;99.90;;;;;;5101135;28;20483;-63
2023/10/10 14:21:43;;;;;;;12.87;4.67;;;23.30;99.90;;;;;;5102815;28;21176;-63
2023/10/10 14:24:56;;;;;;;7.60;4.83;;;23.20;99.90;;;;;;4991343;28;20501;-63
2023/10/10 14:27:23;;;;;;;8.57;4.97;;;23.20;99.90;;;;;;4996051;28;20438;-63
2023/10/10 14:29:57;;;;;;;6.60;4.60;;;23.20;99.90;;;;;;4994791;28;20458;-63
2023/10/10 14:33:08;;;;;;;12.13;5.67;;;23.10;99.90;;;;;;4976371;28;20434;-64
2023/10/10 14:35:52;;;;;;;11.27;5.17;;;23.10;99.90;;;;;;4937249;29;20970;-63
2023/10/10 14:38:31;;;;;;;11.63;5.33;;;23.10;99.90;;;;;;4939579;29;20487;-63
2023/10/10 14:40:58;;;;;;;8.83;5.00;;;23.10;99.90;;;;;;4979734;28;20437;-63
2023/10/10 14:43:36;;;;;;;8.63;4.93;;;23.00;99.90;;;;;;4989686;28;20473;-63
2023/10/10 14:46:11;;;;;;;9.67;5.23;;;23.00;99.90;;;;;;4999709;28;20469;-64
2023/10/10 14:48:42;;;;;;;8.77;5.70;;;23.00;99.90;;;;;;5071520;28;20456;-63
2023/10/10 14:51:26;;;;;;;8.67;4.87;;;23.00;99.90;;;;;;5095376;28;21242;-63
2023/10/10 14:53:57;;;;;;;11.43;5.80;;;22.90;99.90;;;;;;5098378;28;21336;-64
2023/10/10 14:56:37;;;;;;;6.73;4.47;;;22.90;99.90;;;;;;5096569;28;20422;-63
2023/10/10 14:59:31;;;;;;;11.77;5.30;;;22.90;99.90;;;;;;5097276;28;20461;-63
2023/10/10 15:01:59;;;;;;;8.93;5.00;;;22.80;99.90;;;;;;5097789;28;20920;-63
2023/10/10 15:04:28;;;;;;;9.20;4.93;;;22.80;99.90;;;;;;5096334;28;20421;-63
2023/10/10 15:07:04;;;;;;;8.20;5.17;;;22.80;99.90;;;;;;5102393;28;20440;-63
2023/10/10 15:09:52;;;;;;;9.20;5.40;;;22.80;99.90;;;;;;5098658;28;20482;-64
2023/10/10 15:12:22;;;;;;;10.30;5.43;;;22.80;99.90;;;;;;5095812;28;20844;-63
2023/10/10 15:15:10;;;;;;;7.50;5.20;;;22.70;99.90;;;;;;5098326;28;20426;-63
2023/10/10 15:17:49;;;;;;;10.00;5.13;;;22.70;99.90;;;;;;5096446;28;20460;-64
2023/10/10 15:20:28;;;;;;;10.27;5.10;;;22.70;99.90;;;;;;5101309;28;20420;-63
2023/10/10 15:23:04;;;;;;;10.80;4.97;;;22.60;99.90;;;;;;5099263;28;20425;-64
2023/10/10 15:25:32;;;;;;;8.07;4.63;;;22.60;99.90;;;;;;5097203;28;20425;-63
2023/10/10 15:27:59;;;;;;;8.10;5.20;;;22.60;99.90;;;;;;5102896;28;20528;-63
2023/10/10 15:30:40;;;;;;;9.27;5.23;;;22.60;99.90;;;;;;5098570;28;21212;-63
2023/10/10 15:33:17;;;;;;;9.27;4.70;;;22.60;99.90;;;;;;5096838;28;20430;-63
2023/10/10 15:35:56;;;;;;;7.93;5.00;;;22.60;99.90;;;;;;5098866;28;20430;-63
2023/10/10 15:38:53;;;;;;;7.20;4.40;;;22.60;99.90;;;;;;5094109;28;20792;-63
2023/10/10 15:41:26;;;;;;;6.30;5.10;;;22.60;99.90;;;;;;5093029;28;20435;-63
2023/10/10 15:44:22;;;;;;;7.50;4.87;;;22.50;99.90;;;;;;5100204;28;20832;-64
2023/10/10 15:46:58;;;;;;;8.30;5.20;;;22.40;99.90;;;;;;5093601;28;20882;-63
2023/10/10 15:49:25;;;;;;;8.33;5.37;;;22.40;99.90;;;;;;5096521;28;20476;-63
2023/10/10 15:52:03;;;;;;;9.10;4.87;;;22.30;99.90;;;;;;5098212;28;20422;-63
2023/10/10 15:54:33;;;;;;;10.00;5.50;;;22.30;99.90;;;;;;5099816;28;21326;-63
2023/10/10 15:57:05;;;;;;;9.63;5.40;;;22.20;99.90;;;;;;5100545;28;20896;-63
2023/10/10 15:59:31;;;;;;;13.47;5.37;;;22.20;99.90;;;;;;5102208;28;20582;-63
2023/10/10 16:02:13;;;;;;;9.70;5.80;;;22.10;99.90;;;;;;5102639;28;21232;-63
2023/10/10 16:04:44;;;;;;;7.27;4.93;;;22.00;99.90;;;;;;5099124;28;20183;-63
2023/10/10 16:07:15;;;;;;;10.50;4.90;;;21.90;99.90;;;;;;5102471;28;20482;-63
2023/10/10 16:10:14;;;;;;;8.07;5.20;;;21.90;99.90;;;;;;5092865;28;20468;-63
2023/10/10 16:12:52;;;;;;;12.23;5.50;;;21.80;99.90;;;;;;5100250;28;20459;-63
2023/10/10 16:15:22;;;;;;;8.93;5.90;;;21.70;99.90;;;;;;5098516;28;20436;-64
2023/10/10 16:18:19;;;;;;;9.13;5.33;;;21.70;99.90;;;;;;5098715;28;20613;-63
2023/10/10 16:21:16;;;;;;;9.13;5.90;;;21.70;99.90;;;;;;5011709;28;20484;-63
2023/10/10 16:24:01;;;;;;;10.30;5.20;;;21.70;99.90;;;;;;5015367;28;21262;-63
2023/10/10 16:26:59;;;;;;;7.57;5.47;;;21.60;99.90;;;;;;5016827;28;20433;-63
2023/10/10 16:29:34;;;;;;;8.30;4.87;;;21.60;99.90;;;;;;4976258;28;20446;-63
2023/10/10 16:32:17;;;;;;;8.50;5.43;;;21.50;99.90;;;;;;5056918;28;20454;-63
2023/10/10 16:34:49;;;;;;;8.63;5.53;;;21.50;99.90;;;;;;5056879;28;20437;-63
2023/10/10 16:37:21;;;;;;;10.47;5.33;;;21.40;99.90;;;;;;5058847;28;20453;-63
2023/10/10 16:40:37;;;;;;;8.73;5.80;;;21.40;99.90;;;;;;5069983;28;20431;-63
2023/10/10 16:43:24;;;;;;;7.20;5.70;;;21.30;99.90;;;;;;5087515;28;20458;-64
2023/10/10 16:45:56;;;;;;;8.80;5.77;;;21.10;99.90;;;;;;5089880;28;20448;-64
2023/10/10 16:48:40;;;;;;;9.20;6.03;;;21.00;99.90;;;;;;5093215;28;20490;-63
2023/10/10 16:51:12;;;;;;;8.63;5.70;;;20.80;99.90;;;;;;5084623;28;20429;-63
2023/10/10 16:53:55;;;;;;;7.13;5.27;;;20.80;99.90;;;;;;5085784;28;20434;-63
2023/10/10 16:56:27;;;;;;;11.80;5.80;;;20.70;99.90;;;;;;5081836;28;20423;-63
2023/10/10 16:58:55;;;;;;;8.40;4.73;;;20.50;99.90;;;;;;5085184;28;21033;-63
2023/10/10 17:01:22;;;;;;;8.27;5.87;;;20.40;99.90;;;;;;5081597;28;20504;-63
2023/10/10 17:03:57;;;;;;;9.70;6.23;;;20.40;99.90;;;;;;5082959;28;20496;-63
2023/10/10 17:06:54;;;;;;;8.63;5.23;;;20.30;99.90;;;;;;5083150;28;20498;-65
2023/10/10 17:09:26;;;;;;;7.10;5.37;;;20.30;99.90;;;;;;5087597;28;21077;-63
2023/10/10 17:12:07;;;;;;;9.87;5.77;;;20.30;99.90;;;;;;5084870;28;20457;-63
2023/10/10 17:14:48;;;;;;;13.17;5.23;;;20.30;99.90;;;;;;5082746;28;20783;-63
2023/10/10 17:17:49;;;;;;;7.20;4.53;;;20.20;99.90;;;;;;5084555;28;20437;-63
2023/10/10 17:20:20;;;;;;;5.90;4.90;;;20.20;99.90;;;;;;5066496;28;20844;-63
2023/10/10 17:23:01;;;;;;;13.50;4.93;;;20.20;99.90;;;;;;5080432;28;21242;-62
2023/10/10 17:25:31;;;;;;;8.50;4.60;;;20.30;99.90;;;;;;5084347;28;20775;-63
2023/10/10 17:28:04;;;;;;;10.93;5.60;;;20.30;99.90;;;;;;5084467;28;20457;-63
2023/10/10 17:30:40;;;;;;;9.00;4.50;;;20.30;99.90;;;;;;5084430;28;20473;-63
2023/10/10 17:36:57;;;;;;;10.90;5.03;;;20.30;99.90;;;;;;4990172;28;20500;-64
2023/10/10 17:40:20;;;;;;;10.60;4.53;;;20.30;99.90;;;;;;4993723;28;20484;-63
2023/10/10 17:42:49;;;;;;;6.10;4.23;;;20.30;99.90;;;;;;4936974;28;20947;-64
2023/10/10 17:45:27;;;;;;;9.53;5.30;;;20.30;99.90;;;;;;4998173;28;20445;-66
2023/10/10 17:48:05;;;;;;;5.07;3.93;;;20.30;99.90;;;;;;4999069;28;20434;-62